sensor_id;sensor_type;location;lat;lon;timestamp;temperature;humidity
63802;DHT22;49949;43.060;25.624;2023-05-18T00:00:06;12.40;99.90
63802;DHT22;49949;43.060;25.624;2023-05-18T00:02:38;12.30;99.90
63802;DHT22;49949;43.060;25.624;2023-05-18T00:05:05;12.20;99.90
63802;DHT22;49949;43.060;25.624;2023-05-18T00:07:33;12.20;99.90
63802;DHT22;49949;43.060;25.624;2023-05-18T00:09:59;12.20;99.90
63802;DHT22;49949;43.060;25.624;2023-05-18T00:12:26;12.20;99.90
63802;DHT22;49949;43.060;25.624;2023-05-18T00:14:52;12.30;99.90
63802;DHT22;49949;43.060;25.624;2023-05-18T00:17:17;12.30;99.90
63802;DHT22;49949;43.060;25.624;2023-05-18T00:19:44;12.30;99.90
63802;DHT22;49949;43.060;25.624;2023-05-18T00:22:11;12.30;99.90
63802;DHT22;49949;43.060;25.624;2023-05-18T00:24:42;12.30;99.90
63802;DHT22;49949;43.060;25.624;2023-05-18T00:27:08;12.30;99.90
63802;DHT22;49949;43.060;25.624;2023-05-18T00:29:33;12.20;99.90
63802;DHT22;49949;43.060;25.624;2023-05-18T00:31:59;12.20;99.90
63802;DHT22;49949;43.060;25.624;2023-05-18T00:34:25;12.20;99.90
63802;DHT22;49949;43.060;25.624;2023-05-18T00:36:51;12.20;99.90
63802;DHT22;49949;43.060;25.624;2023-05-18T00:39:17;12.20;99.90
63802;DHT22;49949;43.060;25.624;2023-05-18T00:41:43;12.20;99.90
63802;DHT22;49949;43.060;25.624;2023-05-18T00:44:08;12.20;99.90
63802;DHT22;49949;43.060;25.624;2023-05-18T00:46:34;12.20;99.90
63802;DHT22;49949;43.060;25.624;2023-05-18T00:49:00;12.20;99.90
63802;DHT22;49949;43.060;25.624;2023-05-18T00:51:26;12.10;99.90
63802;DHT22;49949;43.060;25.624;2023-05-18T00:53:54;12.30;99.90
63802;DHT22;49949;43.060;25.624;2023-05-18T00:56:21;12.20;99.90
63802;DHT22;49949;43.060;25.624;2023-05-18T00:58:50;12.20;99.90
63802;DHT22;49949;43.060;25.624;2023-05-18T01:01:17;12.20;99.90
63802;DHT22;49949;43.060;25.624;2023-05-18T01:03:43;12.20;99.90
63802;DHT22;49949;43.060;25.624;2023-05-18T01:06:09;12.30;99.90
63802;DHT22;49949;43.060;25.624;2023-05-18T01:08:37;12.20;99.90
63802;DHT22;49949;43.060;25.624;2023-05-18T01:11:25;12.30;99.90
63802;DHT22;49949;43.060;25.624;2023-05-18T01:16:53;12.30;99.90
63802;DHT22;49949;43.060;25.624;2023-05-18T01:22:36;12.30;99.90
63802;DHT22;49949;43.060;25.624;2023-05-18T01:28:00;12.20;99.90
63802;DHT22;49949;43.060;25.624;2023-05-18T01:30:32;12.20;99.90
63802;DHT22;49949;43.060;25.624;2023-05-18T01:32:58;12.20;99.90
63802;DHT22;49949;43.060;25.624;2023-05-18T01:35:24;12.20;99.90
63802;DHT22;49949;43.060;25.624;2023-05-18T01:37:50;12.20;99.90
63802;DHT22;49949;43.060;25.624;2023-05-18T01:40:15;12.20;99.90
63802;DHT22;49949;43.060;25.624;2023-05-18T01:42:47;12.20;99.90
63802;DHT22;49949;43.060;25.624;2023-05-18T01:45:19;12.30;99.90
63802;DHT22;49949;43.060;25.624;2023-05-18T01:47:47;12.20;99.90
63802;DHT22;49949;43.060;25.624;2023-05-18T01:50:18;12.20;99.90
63802;DHT22;49949;43.060;25.624;2023-05-18T01:53:13;12.20;99.90
63802;DHT22;49949;43.060;25.624;2023-05-18T01:55:44;12.20;99.90
63802;DHT22;49949;43.060;25.624;2023-05-18T01:58:12;12.20;99.90
63802;DHT22;49949;43.060;25.624;2023-05-18T02:00:39;12.20;99.90
63802;DHT22;49949;43.060;25.624;2023-05-18T02:03:05;12.30;99.90
63802;DHT22;49949;43.060;25.624;2023-05-18T02:05:31;12.30;99.90
63802;DHT22;49949;43.060;25.624;2023-05-18T02:07:56;12.30;99.90
63802;DHT22;49949;43.060;25.624;2023-05-18T02:10:22;12.20;99.90
63802;DHT22;49949;43.060;25.624;2023-05-18T02:12:48;12.20;99.90
63802;DHT22;49949;43.060;25.624;2023-05-18T02:15:17;12.20;99.90
63802;DHT22;49949;43.060;25.624;2023-05-18T02:17:42;12.30;99.90
63802;DHT22;49949;43.060;25.624;2023-05-18T02:20:08;12.20;99.90
63802;DHT22;49949;43.060;25.624;2023-05-18T02:22:35;12.20;99.90
63802;DHT22;49949;43.060;25.624;2023-05-18T02:25:02;12.20;99.90
63802;DHT22;49949;43.060;25.624;2023-05-18T02:27:27;12.20;99.90
63802;DHT22;49949;43.060;25.624;2023-05-18T02:29:53;12.20;99.90
63802;DHT22;49949;43.060;25.624;2023-05-18T02:32:19;12.30;99.90
63802;DHT22;49949;43.060;25.624;2023-05-18T02:34:45;12.30;99.90
63802;DHT22;49949;43.060;25.624;2023-05-18T02:37:11;12.30;99.90
63802;DHT22;49949;43.060;25.624;2023-05-18T02:39:38;12.30;99.90
63802;DHT22;49949;43.060;25.624;2023-05-18T02:42:05;12.30;99.90
63802;DHT22;49949;43.060;25.624;2023-05-18T02:44:30;12.20;99.90
63802;DHT22;49949;43.060;25.624;2023-05-18T02:46:56;12.30;99.90
63802;DHT22;49949;43.060;25.624;2023-05-18T02:49:22;12.30;99.90
63802;DHT22;49949;43.060;25.624;2023-05-18T02:51:47;12.30;99.90
63802;DHT22;49949;43.060;25.624;2023-05-18T02:54:13;12.30;99.90
63802;DHT22;49949;43.060;25.624;2023-05-18T02:56:39;12.30;99.90
63802;DHT22;49949;43.060;25.624;2023-05-18T02:59:06;12.40;99.90
63802;DHT22;49949;43.060;25.624;2023-05-18T03:01:32;12.30;99.90
63802;DHT22;49949;43.060;25.624;2023-05-18T03:03:59;12.30;99.90
63802;DHT22;49949;43.060;25.624;2023-05-18T03:06:25;12.30;99.90
63802;DHT22;49949;43.060;25.624;2023-05-18T03:08:55;12.30;99.90
63802;DHT22;49949;43.060;25.624;2023-05-18T03:11:21;12.30;99.90
63802;DHT22;49949;43.060;25.624;2023-05-18T03:13:47;12.30;99.90
63802;DHT22;49949;43.060;25.624;2023-05-18T03:16:13;12.30;99.90
63802;DHT22;49949;43.060;25.624;2023-05-18T03:18:39;12.30;99.90
63802;DHT22;49949;43.060;25.624;2023-05-18T03:21:05;12.30;99.90
63802;DHT22;49949;43.060;25.624;2023-05-18T03:23:33;12.30;99.90
63802;DHT22;49949;43.060;25.624;2023-05-18T03:25:59;12.30;99.90
63802;DHT22;49949;43.060;25.624;2023-05-18T03:28:27;12.30;99.90
63802;DHT22;49949;43.060;25.624;2023-05-18T03:30:53;12.30;99.90
63802;DHT22;49949;43.060;25.624;2023-05-18T03:33:19;12.20;99.90
63802;DHT22;49949;43.060;25.624;2023-05-18T03:35:45;12.30;99.90
63802;DHT22;49949;43.060;25.624;2023-05-18T03:38:11;12.20;99.90
63802;DHT22;49949;43.060;25.624;2023-05-18T03:40:36;12.30;99.90
63802;DHT22;49949;43.060;25.624;2023-05-18T03:43:02;12.30;99.90
63802;DHT22;49949;43.060;25.624;2023-05-18T03:45:28;12.30;99.90
63802;DHT22;49949;43.060;25.624;2023-05-18T03:47:54;12.30;99.90
63802;DHT22;49949;43.060;25.624;2023-05-18T03:50:19;12.40;99.90
63802;DHT22;49949;43.060;25.624;2023-05-18T03:52:45;12.40;99.90
63802;DHT22;49949;43.060;25.624;2023-05-18T03:55:11;12.40;99.90
63802;DHT22;49949;43.060;25.624;2023-05-18T03:57:37;12.40;99.90
63802;DHT22;49949;43.060;25.624;2023-05-18T04:00:04;12.40;99.90
63802;DHT22;49949;43.060;25.624;2023-05-18T04:02:33;12.40;99.90
63802;DHT22;49949;43.060;25.624;2023-05-18T04:04:58;12.40;99.90
63802;DHT22;49949;43.060;25.624;2023-05-18T04:07:25;12.40;99.90
63802;DHT22;49949;43.060;25.624;2023-05-18T04:09:53;12.40;99.90
63802;DHT22;49949;43.060;25.624;2023-05-18T04:12:18;12.40;99.90
63802;DHT22;49949;43.060;25.624;2023-05-18T04:14:44;12.40;99.90
63802;DHT22;49949;43.060;25.624;2023-05-18T04:17:16;12.40;99.90
63802;DHT22;49949;43.060;25.624;2023-05-18T04:19:42;12.50;99.90
63802;DHT22;49949;43.060;25.624;2023-05-18T04:22:07;12.50;99.90
63802;DHT22;49949;43.060;25.624;2023-05-18T04:24:34;12.50;99.90
63802;DHT22;49949;43.060;25.624;2023-05-18T04:27:00;12.60;99.90
63802;DHT22;49949;43.060;25.624;2023-05-18T04:29:27;12.60;99.90
63802;DHT22;49949;43.060;25.624;2023-05-18T04:31:56;12.70;99.90
63802;DHT22;49949;43.060;25.624;2023-05-18T04:34:29;12.80;99.90
63802;DHT22;49949;43.060;25.624;2023-05-18T04:36:56;12.90;99.90
63802;DHT22;49949;43.060;25.624;2023-05-18T04:39:24;13.00;99.90
63802;DHT22;49949;43.060;25.624;2023-05-18T04:41:52;13.00;99.90
63802;DHT22;49949;43.060;25.624;2023-05-18T04:44:26;13.10;99.90
63802;DHT22;49949;43.060;25.624;2023-05-18T04:46:52;13.10;99.90
63802;DHT22;49949;43.060;25.624;2023-05-18T04:49:19;13.20;99.90
63802;DHT22;49949;43.060;25.624;2023-05-18T04:51:55;13.30;99.90
63802;DHT22;49949;43.060;25.624;2023-05-18T04:54:28;13.30;99.90
63802;DHT22;49949;43.060;25.624;2023-05-18T04:56:55;13.40;99.90
63802;DHT22;49949;43.060;25.624;2023-05-18T04:59:21;13.40;99.90
63802;DHT22;49949;43.060;25.624;2023-05-18T05:01:53;13.50;99.90
63802;DHT22;49949;43.060;25.624;2023-05-18T05:04:20;13.60;99.90
63802;DHT22;49949;43.060;25.624;2023-05-18T05:06:46;13.70;99.90
63802;DHT22;49949;43.060;25.624;2023-05-18T05:09:12;13.70;99.90
63802;DHT22;49949;43.060;25.624;2023-05-18T05:11:42;13.80;99.90
63802;DHT22;49949;43.060;25.624;2023-05-18T05:14:08;13.90;99.90
63802;DHT22;49949;43.060;25.624;2023-05-18T05:16:34;13.90;99.90
63802;DHT22;49949;43.060;25.624;2023-05-18T05:19:00;14.00;99.90
63802;DHT22;49949;43.060;25.624;2023-05-18T05:21:26;14.10;99.90
63802;DHT22;49949;43.060;25.624;2023-05-18T05:23:51;14.10;99.90
63802;DHT22;49949;43.060;25.624;2023-05-18T05:26:18;14.20;99.90
63802;DHT22;49949;43.060;25.624;2023-05-18T05:28:44;14.30;99.90
63802;DHT22;49949;43.060;25.624;2023-05-18T05:31:10;14.40;99.90
63802;DHT22;49949;43.060;25.624;2023-05-18T05:33:36;14.40;99.90
63802;DHT22;49949;43.060;25.624;2023-05-18T05:36:01;14.50;99.90
63802;DHT22;49949;43.060;25.624;2023-05-18T05:38:30;14.60;99.90
63802;DHT22;49949;43.060;25.624;2023-05-18T05:40:56;14.60;99.90
63802;DHT22;49949;43.060;25.624;2023-05-18T05:43:22;14.70;99.90
63802;DHT22;49949;43.060;25.624;2023-05-18T05:45:47;14.80;99.90
63802;DHT22;49949;43.060;25.624;2023-05-18T05:48:13;14.90;99.90
63802;DHT22;49949;43.060;25.624;2023-05-18T05:50:39;14.90;99.90
63802;DHT22;49949;43.060;25.624;2023-05-18T05:53:04;15.10;99.90
63802;DHT22;49949;43.060;25.624;2023-05-18T05:55:30;15.10;99.90
63802;DHT22;49949;43.060;25.624;2023-05-18T05:57:56;15.20;99.90
63802;DHT22;49949;43.060;25.624;2023-05-18T06:00:21;15.30;99.90
63802;DHT22;49949;43.060;25.624;2023-05-18T06:02:48;15.30;99.90
63802;DHT22;49949;43.060;25.624;2023-05-18T06:05:14;15.40;99.90
63802;DHT22;49949;43.060;25.624;2023-05-18T06:07:40;15.40;99.90
63802;DHT22;49949;43.060;25.624;2023-05-18T06:10:06;15.40;99.90
63802;DHT22;49949;43.060;25.624;2023-05-18T06:12:32;15.40;99.90
63802;DHT22;49949;43.060;25.624;2023-05-18T06:14:58;15.40;99.90
63802;DHT22;49949;43.060;25.624;2023-05-18T06:17:25;15.40;99.90
63802;DHT22;49949;43.060;25.624;2023-05-18T06:19:51;15.20;99.90
63802;DHT22;49949;43.060;25.624;2023-05-18T06:22:17;15.30;99.90
63802;DHT22;49949;43.060;25.624;2023-05-18T06:24:43;15.30;99.90
63802;DHT22;49949;43.060;25.624;2023-05-18T06:27:09;15.40;99.90
63802;DHT22;49949;43.060;25.624;2023-05-18T06:29:34;15.30;99.90
63802;DHT22;49949;43.060;25.624;2023-05-18T06:32:00;15.10;99.90
63802;DHT22;49949;43.060;25.624;2023-05-18T06:34:26;15.00;99.90
63802;DHT22;49949;43.060;25.624;2023-05-18T06:36:51;15.00;99.90
63802;DHT22;49949;43.060;25.624;2023-05-18T06:39:17;15.00;99.90
63802;DHT22;49949;43.060;25.624;2023-05-18T06:41:43;15.20;99.90
63802;DHT22;49949;43.060;25.624;2023-05-18T06:44:10;15.10;99.90
63802;DHT22;49949;43.060;25.624;2023-05-18T06:46:36;15.10;99.90
63802;DHT22;49949;43.060;25.624;2023-05-18T06:49:02;15.00;99.90
63802;DHT22;49949;43.060;25.624;2023-05-18T06:51:28;15.10;99.90
63802;DHT22;49949;43.060;25.624;2023-05-18T06:53:53;15.10;99.90
63802;DHT22;49949;43.060;25.624;2023-05-18T06:56:19;15.00;99.90
63802;DHT22;49949;43.060;25.624;2023-05-18T06:58:46;15.00;99.90
63802;DHT22;49949;43.060;25.624;2023-05-18T07:01:11;15.00;99.90
63802;DHT22;49949;43.060;25.624;2023-05-18T07:03:37;15.00;99.90
63802;DHT22;49949;43.060;25.624;2023-05-18T07:06:03;15.00;99.90
63802;DHT22;49949;43.060;25.624;2023-05-18T07:08:30;15.00;99.90
63802;DHT22;49949;43.060;25.624;2023-05-18T07:10:56;14.90;99.90
63802;DHT22;49949;43.060;25.624;2023-05-18T07:13:23;14.90;99.90
63802;DHT22;49949;43.060;25.624;2023-05-18T07:15:49;14.90;99.90
63802;DHT22;49949;43.060;25.624;2023-05-18T07:18:15;14.80;99.90
63802;DHT22;49949;43.060;25.624;2023-05-18T07:20:40;14.90;99.90
63802;DHT22;49949;43.060;25.624;2023-05-18T07:23:06;15.00;99.90
63802;DHT22;49949;43.060;25.624;2023-05-18T07:25:32;15.00;99.90
63802;DHT22;49949;43.060;25.624;2023-05-18T07:27:57;15.20;99.90
63802;DHT22;49949;43.060;25.624;2023-05-18T07:30:24;15.30;99.90
63802;DHT22;49949;43.060;25.624;2023-05-18T07:32:51;15.40;99.90
63802;DHT22;49949;43.060;25.624;2023-05-18T07:35:17;15.40;99.90
63802;DHT22;49949;43.060;25.624;2023-05-18T07:37:48;15.40;99.90
63802;DHT22;49949;43.060;25.624;2023-05-18T07:40:13;15.30;99.90
63802;DHT22;49949;43.060;25.624;2023-05-18T07:42:39;15.40;99.90
63802;DHT22;49949;43.060;25.624;2023-05-18T07:45:06;15.40;99.90
63802;DHT22;49949;43.060;25.624;2023-05-18T07:47:32;15.50;99.90
63802;DHT22;49949;43.060;25.624;2023-05-18T07:49:58;15.50;99.90
63802;DHT22;49949;43.060;25.624;2023-05-18T07:52:24;15.50;99.90
63802;DHT22;49949;43.060;25.624;2023-05-18T07:54:50;15.50;99.90
63802;DHT22;49949;43.060;25.624;2023-05-18T07:57:16;15.50;99.90
63802;DHT22;49949;43.060;25.624;2023-05-18T07:59:41;15.50;99.90
63802;DHT22;49949;43.060;25.624;2023-05-18T08:02:07;15.60;99.90
63802;DHT22;49949;43.060;25.624;2023-05-18T08:04:33;15.60;99.90
63802;DHT22;49949;43.060;25.624;2023-05-18T08:06:58;15.60;99.90
63802;DHT22;49949;43.060;25.624;2023-05-18T08:09:28;15.60;99.90
63802;DHT22;49949;43.060;25.624;2023-05-18T08:11:54;15.70;99.90
63802;DHT22;49949;43.060;25.624;2023-05-18T08:14:19;15.70;99.90
63802;DHT22;49949;43.060;25.624;2023-05-18T08:16:46;15.70;99.90
63802;DHT22;49949;43.060;25.624;2023-05-18T08:19:11;15.80;99.90
63802;DHT22;49949;43.060;25.624;2023-05-18T08:21:37;15.80;99.90
63802;DHT22;49949;43.060;25.624;2023-05-18T08:24:03;15.80;99.90
63802;DHT22;49949;43.060;25.624;2023-05-18T08:26:29;15.80;99.90
63802;DHT22;49949;43.060;25.624;2023-05-18T08:28:55;15.80;99.90
63802;DHT22;49949;43.060;25.624;2023-05-18T08:31:21;15.90;99.90
63802;DHT22;49949;43.060;25.624;2023-05-18T08:33:47;15.90;99.90
63802;DHT22;49949;43.060;25.624;2023-05-18T08:36:13;16.00;99.90
63802;DHT22;49949;43.060;25.624;2023-05-18T08:38:38;16.00;99.90
63802;DHT22;49949;43.060;25.624;2023-05-18T08:41:12;16.00;99.90
63802;DHT22;49949;43.060;25.624;2023-05-18T08:43:44;16.10;99.90
63802;DHT22;49949;43.060;25.624;2023-05-18T08:46:25;16.10;99.90
63802;DHT22;49949;43.060;25.624;2023-05-18T08:48:53;16.00;99.90
63802;DHT22;49949;43.060;25.624;2023-05-18T08:51:20;15.80;99.90
63802;DHT22;49949;43.060;25.624;2023-05-18T08:53:53;15.60;99.90
63802;DHT22;49949;43.060;25.624;2023-05-18T08:56:22;15.50;99.90
63802;DHT22;49949;43.060;25.624;2023-05-18T08:58:53;15.50;99.90
63802;DHT22;49949;43.060;25.624;2023-05-18T09:01:19;15.60;99.90
63802;DHT22;49949;43.060;25.624;2023-05-18T09:03:46;15.70;99.90
63802;DHT22;49949;43.060;25.624;2023-05-18T09:06:15;15.80;99.90
63802;DHT22;49949;43.060;25.624;2023-05-18T09:08:43;16.00;99.90
63802;DHT22;49949;43.060;25.624;2023-05-18T09:11:11;16.20;99.90
63802;DHT22;49949;43.060;25.624;2023-05-18T09:13:37;16.50;99.90
63802;DHT22;49949;43.060;25.624;2023-05-18T09:16:03;16.70;99.90
63802;DHT22;49949;43.060;25.624;2023-05-18T09:18:29;16.90;99.90
63802;DHT22;49949;43.060;25.624;2023-05-18T09:20:55;17.10;99.90
63802;DHT22;49949;43.060;25.624;2023-05-18T09:23:21;17.20;99.90
63802;DHT22;49949;43.060;25.624;2023-05-18T09:25:47;17.30;99.90
63802;DHT22;49949;43.060;25.624;2023-05-18T09:28:26;17.30;99.90
63802;DHT22;49949;43.060;25.624;2023-05-18T09:30:52;17.40;99.90
63802;DHT22;49949;43.060;25.624;2023-05-18T09:33:19;17.40;99.90
63802;DHT22;49949;43.060;25.624;2023-05-18T09:35:51;17.40;99.90
63802;DHT22;49949;43.060;25.624;2023-05-18T09:38:20;17.50;99.90
63802;DHT22;49949;43.060;25.624;2023-05-18T09:40:48;17.40;99.90
63802;DHT22;49949;43.060;25.624;2023-05-18T09:43:16;17.20;99.90
63802;DHT22;49949;43.060;25.624;2023-05-18T09:45:44;17.00;99.90
63802;DHT22;49949;43.060;25.624;2023-05-18T09:48:10;16.80;99.90
63802;DHT22;49949;43.060;25.624;2023-05-18T09:50:36;16.60;99.90
63802;DHT22;49949;43.060;25.624;2023-05-18T09:53:06;16.30;99.90
63802;DHT22;49949;43.060;25.624;2023-05-18T09:55:36;16.20;99.90
63802;DHT22;49949;43.060;25.624;2023-05-18T09:58:03;16.20;99.90
63802;DHT22;49949;43.060;25.624;2023-05-18T10:00:31;16.20;99.90
63802;DHT22;49949;43.060;25.624;2023-05-18T10:03:01;16.20;99.90
63802;DHT22;49949;43.060;25.624;2023-05-18T10:05:28;16.20;99.90
63802;DHT22;49949;43.060;25.624;2023-05-18T10:07:58;16.20;99.90
63802;DHT22;49949;43.060;25.624;2023-05-18T10:10:26;16.20;99.90
63802;DHT22;49949;43.060;25.624;2023-05-18T10:12:54;16.30;99.90
63802;DHT22;49949;43.060;25.624;2023-05-18T10:15:21;16.30;99.90
63802;DHT22;49949;43.060;25.624;2023-05-18T10:17:49;16.40;99.90
63802;DHT22;49949;43.060;25.624;2023-05-18T10:20:20;16.50;99.90
63802;DHT22;49949;43.060;25.624;2023-05-18T10:22:47;16.50;99.90
63802;DHT22;49949;43.060;25.624;2023-05-18T10:25:25;16.50;99.90
63802;DHT22;49949;43.060;25.624;2023-05-18T10:27:55;16.60;99.90
63802;DHT22;49949;43.060;25.624;2023-05-18T10:30:22;16.60;99.90
63802;DHT22;49949;43.060;25.624;2023-05-18T10:32:48;16.60;99.90
63802;DHT22;49949;43.060;25.624;2023-05-18T10:35:14;16.60;99.90
63802;DHT22;49949;43.060;25.624;2023-05-18T10:37:44;16.60;99.90
63802;DHT22;49949;43.060;25.624;2023-05-18T10:40:13;16.60;99.90
63802;DHT22;49949;43.060;25.624;2023-05-18T10:42:41;16.50;99.90
63802;DHT22;49949;43.060;25.624;2023-05-18T10:45:08;16.50;99.90
63802;DHT22;49949;43.060;25.624;2023-05-18T10:47:35;16.50;99.90
63802;DHT22;49949;43.060;25.624;2023-05-18T10:50:05;16.40;99.90
63802;DHT22;49949;43.060;25.624;2023-05-18T10:52:31;16.50;99.90
63802;DHT22;49949;43.060;25.624;2023-05-18T10:54:58;16.60;99.90
63802;DHT22;49949;43.060;25.624;2023-05-18T10:57:36;16.60;99.90
63802;DHT22;49949;43.060;25.624;2023-05-18T11:00:04;16.60;99.90
63802;DHT22;49949;43.060;25.624;2023-05-18T11:02:32;16.70;99.90
63802;DHT22;49949;43.060;25.624;2023-05-18T11:04:58;16.70;99.90
63802;DHT22;49949;43.060;25.624;2023-05-18T11:07:24;16.60;99.90
63802;DHT22;49949;43.060;25.624;2023-05-18T11:09:54;16.60;99.90
63802;DHT22;49949;43.060;25.624;2023-05-18T11:12:21;16.80;99.90
63802;DHT22;49949;43.060;25.624;2023-05-18T11:14:52;17.00;99.90
63802;DHT22;49949;43.060;25.624;2023-05-18T11:17:25;17.10;99.90
63802;DHT22;49949;43.060;25.624;2023-05-18T11:27:56;17.40;99.90
63802;DHT22;49949;43.060;25.624;2023-05-18T11:30:46;17.30;99.90
63802;DHT22;49949;43.060;25.624;2023-05-18T11:33:32;17.40;99.90
63802;DHT22;49949;43.060;25.624;2023-05-18T11:38:49;17.20;99.90
63802;DHT22;49949;43.060;25.624;2023-05-18T11:41:36;17.00;99.90
63802;DHT22;49949;43.060;25.624;2023-05-18T11:47:02;16.90;99.90
63802;DHT22;49949;43.060;25.624;2023-05-18T11:49:29;16.90;99.90
63802;DHT22;49949;43.060;25.624;2023-05-18T11:54:38;16.90;99.90
63802;DHT22;49949;43.060;25.624;2023-05-18T11:57:04;16.90;99.90
63802;DHT22;49949;43.060;25.624;2023-05-18T11:59:31;17.00;99.90
63802;DHT22;49949;43.060;25.624;2023-05-18T12:02:00;17.00;99.90
63802;DHT22;49949;43.060;25.624;2023-05-18T12:04:27;16.90;99.90
63802;DHT22;49949;43.060;25.624;2023-05-18T12:06:55;16.90;99.90
63802;DHT22;49949;43.060;25.624;2023-05-18T12:09:21;16.90;99.90
63802;DHT22;49949;43.060;25.624;2023-05-18T12:11:47;16.80;99.90
63802;DHT22;49949;43.060;25.624;2023-05-18T12:14:12;16.70;99.90
63802;DHT22;49949;43.060;25.624;2023-05-18T12:16:39;16.60;99.90
63802;DHT22;49949;43.060;25.624;2023-05-18T12:19:08;16.50;99.90
63802;DHT22;49949;43.060;25.624;2023-05-18T12:21:37;16.40;99.90
63802;DHT22;49949;43.060;25.624;2023-05-18T12:24:03;16.30;99.90
63802;DHT22;49949;43.060;25.624;2023-05-18T12:26:29;16.20;99.90
63802;DHT22;49949;43.060;25.624;2023-05-18T12:28:58;16.30;99.90
63802;DHT22;49949;43.060;25.624;2023-05-18T12:31:24;16.40;99.90
63802;DHT22;49949;43.060;25.624;2023-05-18T12:33:52;16.50;99.90
63802;DHT22;49949;43.060;25.624;2023-05-18T12:36:19;16.70;99.90
63802;DHT22;49949;43.060;25.624;2023-05-18T12:38:50;16.80;99.90
63802;DHT22;49949;43.060;25.624;2023-05-18T12:41:26;16.90;99.90
63802;DHT22;49949;43.060;25.624;2023-05-18T12:43:52;17.20;99.90
63802;DHT22;49949;43.060;25.624;2023-05-18T12:46:22;17.40;99.90
63802;DHT22;49949;43.060;25.624;2023-05-18T12:48:56;17.50;99.90
63802;DHT22;49949;43.060;25.624;2023-05-18T12:51:22;17.80;99.90
63802;DHT22;49949;43.060;25.624;2023-05-18T12:53:49;17.90;99.90
63802;DHT22;49949;43.060;25.624;2023-05-18T12:56:15;18.10;99.90
63802;DHT22;49949;43.060;25.624;2023-05-18T12:58:57;18.20;99.90
63802;DHT22;49949;43.060;25.624;2023-05-18T13:01:23;18.30;99.90
63802;DHT22;49949;43.060;25.624;2023-05-18T13:03:54;18.30;99.90
63802;DHT22;49949;43.060;25.624;2023-05-18T13:06:21;18.30;99.90
63802;DHT22;49949;43.060;25.624;2023-05-18T13:08:47;18.10;99.90
63802;DHT22;49949;43.060;25.624;2023-05-18T13:11:13;18.10;99.90
63802;DHT22;49949;43.060;25.624;2023-05-18T13:14:00;18.10;99.90
63802;DHT22;49949;43.060;25.624;2023-05-18T13:16:26;18.10;99.90
63802;DHT22;49949;43.060;25.624;2023-05-18T13:18:56;17.90;99.90
63802;DHT22;49949;43.060;25.624;2023-05-18T13:21:22;17.90;99.90
63802;DHT22;49949;43.060;25.624;2023-05-18T13:23:47;17.70;99.90
63802;DHT22;49949;43.060;25.624;2023-05-18T13:26:13;17.70;99.90
63802;DHT22;49949;43.060;25.624;2023-05-18T13:28:39;17.60;99.90
63802;DHT22;49949;43.060;25.624;2023-05-18T13:31:05;17.60;99.90
63802;DHT22;49949;43.060;25.624;2023-05-18T13:33:31;17.50;99.90
63802;DHT22;49949;43.060;25.624;2023-05-18T13:35:57;17.50;99.90
63802;DHT22;49949;43.060;25.624;2023-05-18T13:38:23;17.40;99.90
63802;DHT22;49949;43.060;25.624;2023-05-18T13:40:49;17.40;99.90
63802;DHT22;49949;43.060;25.624;2023-05-18T13:43:14;17.30;99.90
63802;DHT22;49949;43.060;25.624;2023-05-18T13:45:41;17.30;99.90
63802;DHT22;49949;43.060;25.624;2023-05-18T13:48:07;17.20;99.90
63802;DHT22;49949;43.060;25.624;2023-05-18T13:50:34;17.20;99.90
63802;DHT22;49949;43.060;25.624;2023-05-18T13:53:00;17.10;99.90
63802;DHT22;49949;43.060;25.624;2023-05-18T13:55:26;17.00;99.90
63802;DHT22;49949;43.060;25.624;2023-05-18T13:57:51;17.00;99.90
63802;DHT22;49949;43.060;25.624;2023-05-18T14:00:17;17.10;99.90
63802;DHT22;49949;43.060;25.624;2023-05-18T14:02:45;17.20;99.90
63802;DHT22;49949;43.060;25.624;2023-05-18T14:05:12;17.10;99.90
63802;DHT22;49949;43.060;25.624;2023-05-18T14:07:39;17.20;99.90
63802;DHT22;49949;43.060;25.624;2023-05-18T14:10:06;17.30;99.90
63802;DHT22;49949;43.060;25.624;2023-05-18T14:12:32;17.30;99.90
63802;DHT22;49949;43.060;25.624;2023-05-18T14:14:58;17.50;99.90
63802;DHT22;49949;43.060;25.624;2023-05-18T14:17:24;17.60;99.90
63802;DHT22;49949;43.060;25.624;2023-05-18T14:19:51;17.50;99.90
63802;DHT22;49949;43.060;25.624;2023-05-18T14:22:17;17.40;99.90
63802;DHT22;49949;43.060;25.624;2023-05-18T14:24:43;17.40;99.90
63802;DHT22;49949;43.060;25.624;2023-05-18T14:27:09;17.30;99.90
63802;DHT22;49949;43.060;25.624;2023-05-18T14:29:35;17.20;99.90
63802;DHT22;49949;43.060;25.624;2023-05-18T14:32:01;17.10;99.90
63802;DHT22;49949;43.060;25.624;2023-05-18T14:34:26;17.10;99.90
63802;DHT22;49949;43.060;25.624;2023-05-18T14:36:52;17.00;99.90
63802;DHT22;49949;43.060;25.624;2023-05-18T14:39:18;16.90;99.90
63802;DHT22;49949;43.060;25.624;2023-05-18T14:41:44;16.90;99.90
63802;DHT22;49949;43.060;25.624;2023-05-18T14:44:10;16.90;99.90
63802;DHT22;49949;43.060;25.624;2023-05-18T14:46:38;16.90;99.90
63802;DHT22;49949;43.060;25.624;2023-05-18T14:49:04;16.80;99.90
63802;DHT22;49949;43.060;25.624;2023-05-18T14:51:30;16.90;99.90
63802;DHT22;49949;43.060;25.624;2023-05-18T14:53:56;16.90;99.90
63802;DHT22;49949;43.060;25.624;2023-05-18T14:56:22;16.90;99.90
63802;DHT22;49949;43.060;25.624;2023-05-18T14:58:47;17.00;99.90
63802;DHT22;49949;43.060;25.624;2023-05-18T15:01:13;16.90;99.90
63802;DHT22;49949;43.060;25.624;2023-05-18T15:03:39;16.90;99.90
63802;DHT22;49949;43.060;25.624;2023-05-18T15:06:04;16.90;99.90
63802;DHT22;49949;43.060;25.624;2023-05-18T15:08:30;16.90;99.90
63802;DHT22;49949;43.060;25.624;2023-05-18T15:10:56;17.00;99.90
63802;DHT22;49949;43.060;25.624;2023-05-18T15:13:22;17.00;99.90
63802;DHT22;49949;43.060;25.624;2023-05-18T15:15:48;16.90;99.90
63802;DHT22;49949;43.060;25.624;2023-05-18T15:18:13;17.00;99.90
63802;DHT22;49949;43.060;25.624;2023-05-18T15:20:39;16.90;99.90
63802;DHT22;49949;43.060;25.624;2023-05-18T15:23:08;16.90;99.90
63802;DHT22;49949;43.060;25.624;2023-05-18T15:25:34;16.90;99.90
63802;DHT22;49949;43.060;25.624;2023-05-18T15:28:00;16.90;99.90
63802;DHT22;49949;43.060;25.624;2023-05-18T15:30:26;16.80;99.90
63802;DHT22;49949;43.060;25.624;2023-05-18T15:32:57;16.70;99.90
63802;DHT22;49949;43.060;25.624;2023-05-18T15:35:23;16.70;99.90
63802;DHT22;49949;43.060;25.624;2023-05-18T15:37:49;16.70;99.90
63802;DHT22;49949;43.060;25.624;2023-05-18T15:40:18;16.60;99.90